createdAt,value
2023-04-08T00:00:54.831Z,33.50
2023-04-08T00:03:23.024Z,30.50
2023-04-08T00:05:51.157Z,34.00
2023-04-08T00:08:19.138Z,30.50
2023-04-08T00:10:47.163Z,29.70
2023-04-08T00:13:15.289Z,31.90
2023-04-08T00:15:43.373Z,33.30
2023-04-08T00:18:11.620Z,36.30
2023-04-08T00:20:39.639Z,31.00
2023-04-08T00:23:07.607Z,39.20
2023-04-08T00:25:35.798Z,36.40
2023-04-08T00:28:04.104Z,37.10
2023-04-08T00:30:32.173Z,37.60
2023-04-08T00:33:00.309Z,36.90
2023-04-08T00:35:28.422Z,37.60
2023-04-08T00:37:56.386Z,35.80
2023-04-08T00:40:24.352Z,36.40
2023-04-08T00:42:52.406Z,38.30
2023-04-08T00:45:20.434Z,38.40
2023-04-08T00:47:52.879Z,37.40
2023-04-08T00:50:21.554Z,40.10
2023-04-08T00:52:49.487Z,37.50
2023-04-08T00:55:17.512Z,39.70
2023-04-08T00:57:46.676Z,40.20
2023-04-08T01:00:16.191Z,40.30
2023-04-08T01:02:59.407Z,49.00
2023-04-08T01:05:40.419Z,42.00
2023-04-08T01:08:11.527Z,40.00
2023-04-08T01:10:44.349Z,41.10
2023-04-08T01:13:14.698Z,44.20
2023-04-08T01:15:44.374Z,42.10
2023-04-08T01:18:15.985Z,44.50
2023-04-08T01:20:45.633Z,48.10
2023-04-08T01:23:23.356Z,48.00
2023-04-08T01:25:55.879Z,45.20
2023-04-08T01:28:27.243Z,49.20
2023-04-08T01:30:59.255Z,48.20
2023-04-08T01:33:29.716Z,47.00
2023-04-08T01:36:00.255Z,43.50
2023-04-08T01:38:29.409Z,49.30
2023-04-08T01:40:58.001Z,48.80
2023-04-08T01:43:27.866Z,47.40
2023-04-08T01:45:58.648Z,44.40
2023-04-08T01:48:28.374Z,45.00
2023-04-08T01:50:57.828Z,44.80
2023-04-08T01:53:25.900Z,45.70
2023-04-08T01:56:13.027Z,42.90
2023-04-08T01:58:46.801Z,47.60
2023-04-08T02:01:18.556Z,44.00
2023-04-08T02:03:47.897Z,47.60
2023-04-08T02:06:15.942Z,44.50
2023-04-08T02:08:44.405Z,42.90
2023-04-08T02:11:12.717Z,42.90
2023-04-08T02:13:41.226Z,38.40
2023-04-08T02:16:38.243Z,40.10
2023-04-08T02:19:14.483Z,36.50
2023-04-08T02:21:52.605Z,33.60
2023-04-08T02:24:21.501Z,34.00
2023-04-08T02:26:54.078Z,34.50
2023-04-08T02:29:22.397Z,32.40
2023-04-08T02:31:55.420Z,36.00
2023-04-08T02:34:25.457Z,34.30
2023-04-08T02:36:54.013Z,35.20
2023-04-08T02:39:22.079Z,32.80
2023-04-08T02:41:50.844Z,35.30
2023-04-08T02:44:18.919Z,34.80
2023-04-08T02:46:46.954Z,38.60
2023-04-08T02:49:15.025Z,51.30
2023-04-08T02:51:42.897Z,65.40
2023-04-08T02:54:10.959Z,80.60
2023-04-08T02:56:38.871Z,74.20
2023-04-08T02:59:06.801Z,61.50
2023-04-08T03:01:34.725Z,55.20
2023-04-08T03:04:02.838Z,51.10
2023-04-08T03:06:32.299Z,54.00
2023-04-08T03:09:00.279Z,53.90
2023-04-08T03:11:29.823Z,60.50
2023-04-08T03:13:58.342Z,68.40
2023-04-08T03:16:26.510Z,69.80
2023-04-08T03:18:54.569Z,62.40
2023-04-08T03:21:22.598Z,53.30
2023-04-08T03:23:50.687Z,51.40
2023-04-08T03:26:19.127Z,46.30
2023-04-08T03:28:47.391Z,45.10
2023-04-08T03:31:15.721Z,44.30
2023-04-08T03:33:43.682Z,47.80
2023-04-08T03:36:12.206Z,46.60
2023-04-08T03:38:40.126Z,38.30
2023-04-08T03:41:08.204Z,39.20
2023-04-08T03:43:37.921Z,40.60
2023-04-08T03:46:06.419Z,37.50
2023-04-08T03:48:34.427Z,36.40
2023-04-08T03:51:02.354Z,39.50
2023-04-08T03:53:30.928Z,38.10
2023-04-08T03:56:00.084Z,37.60
2023-04-08T03:58:28.273Z,42.50
2023-04-08T04:00:56.375Z,38.30
2023-04-08T04:03:25.034Z,34.80
2023-04-08T04:05:53.546Z,40.10
2023-04-08T04:08:21.576Z,45.10
2023-04-08T04:10:49.607Z,39.30
2023-04-08T04:13:19.545Z,38.70
2023-04-08T04:15:47.915Z,34.70
2023-04-08T04:18:16.018Z,39.50
2023-04-08T04:20:44.174Z,48.00
2023-04-08T04:23:12.283Z,42.40
2023-04-08T04:25:44.350Z,39.20
2023-04-08T04:28:12.534Z,40.50
2023-04-08T04:30:40.806Z,34.70
2023-04-08T04:33:08.797Z,38.50
2023-04-08T04:35:36.784Z,39.40
2023-04-08T04:38:10.552Z,39.20
2023-04-08T04:40:39.664Z,37.10
2023-04-08T04:43:07.628Z,40.80
2023-04-08T04:45:35.616Z,37.60
2023-04-08T04:48:03.794Z,36.00
2023-04-08T04:50:31.818Z,38.10
2023-04-08T04:52:59.797Z,36.60
2023-04-08T04:55:27.780Z,42.00
2023-04-08T04:57:55.940Z,34.80
2023-04-08T05:00:28.430Z,35.20
2023-04-08T05:03:00.613Z,41.40
2023-04-08T05:05:31.576Z,34.50
2023-04-08T05:08:00.639Z,35.50
2023-04-08T05:10:29.415Z,36.40
2023-04-08T05:13:00.080Z,35.90
2023-04-08T05:15:28.012Z,35.90
2023-04-08T05:17:58.067Z,34.80
2023-04-08T05:20:26.087Z,33.60
2023-04-08T05:22:54.076Z,33.50
2023-04-08T05:25:22.188Z,35.10
2023-04-08T05:27:50.209Z,32.90
2023-04-08T05:30:19.028Z,34.40
2023-04-08T05:32:47.131Z,35.40
2023-04-08T05:35:18.299Z,31.90
2023-04-08T05:38:09.325Z,35.90
2023-04-08T05:40:37.400Z,33.40
2023-04-08T05:43:08.060Z,30.60
2023-04-08T05:48:04.446Z,31.50
2023-04-08T05:50:35.675Z,27.80
2023-04-08T05:53:03.764Z,34.00
2023-04-08T05:55:31.802Z,34.20
2023-04-08T05:57:59.765Z,37.00
2023-04-08T06:00:27.780Z,39.70
2023-04-08T06:02:55.921Z,39.60
2023-04-08T06:05:24.338Z,37.50
2023-04-08T06:07:52.393Z,37.40
2023-04-08T06:10:20.574Z,39.20
2023-04-08T06:12:48.527Z,35.00
2023-04-08T06:15:16.753Z,32.60
2023-04-08T06:17:44.923Z,33.70
2023-04-08T06:20:12.921Z,34.30
2023-04-08T06:22:40.926Z,33.40
2023-04-08T06:25:09.059Z,35.90
2023-04-08T06:27:37.174Z,33.90
2023-04-08T06:30:05.779Z,36.00
2023-04-08T06:32:33.783Z,36.20
2023-04-08T06:35:01.848Z,34.40
2023-04-08T06:37:30.009Z,35.00
2023-04-08T06:39:58.105Z,38.30
2023-04-08T06:42:26.007Z,41.00
2023-04-08T06:45:17.084Z,41.50
2023-04-08T06:47:45.369Z,39.10
2023-04-08T06:50:13.467Z,32.70
2023-04-08T06:52:41.420Z,33.20
2023-04-08T06:55:09.604Z,33.50
2023-04-08T06:57:37.639Z,30.90
2023-04-08T07:00:08.613Z,30.70
2023-04-08T07:02:36.756Z,32.00
2023-04-08T07:05:09.054Z,28.90
2023-04-08T07:07:37.734Z,29.50
2023-04-08T07:10:10.907Z,23.40
2023-04-08T07:12:41.090Z,25.30
2023-04-08T07:15:12.120Z,23.30
2023-04-08T07:17:40.764Z,21.80
2023-04-08T07:20:09.400Z,23.20
2023-04-08T07:22:37.346Z,21.20
2023-04-08T07:25:05.929Z,23.70
2023-04-08T07:27:41.901Z,20.10
2023-04-08T07:30:10.208Z,21.30
2023-04-08T07:32:41.277Z,23.40
2023-04-08T07:35:09.499Z,23.50
2023-04-08T07:37:37.714Z,17.60
2023-04-08T07:40:22.693Z,16.00
2023-04-08T07:42:51.172Z,18.00
2023-04-08T07:45:19.177Z,19.00
2023-04-08T07:47:47.509Z,19.50
2023-04-08T07:50:19.016Z,20.90
2023-04-08T07:52:47.082Z,18.60
2023-04-08T07:55:15.324Z,20.20
2023-04-08T07:57:43.427Z,19.60
2023-04-08T08:00:12.717Z,21.70
2023-04-08T08:02:43.722Z,21.00
2023-04-08T08:05:11.924Z,18.70
2023-04-08T08:07:40.150Z,26.30
2023-04-08T08:10:16.542Z,19.50
2023-04-08T08:12:44.748Z,21.60
2023-04-08T08:15:24.962Z,16.50
2023-04-08T08:18:02.384Z,21.60
2023-04-08T08:20:47.351Z,19.20
2023-04-08T08:23:15.856Z,23.30
2023-04-08T08:25:47.067Z,23.50
2023-04-08T08:28:26.938Z,18.70
2023-04-08T08:30:56.962Z,21.20
2023-04-08T08:33:35.694Z,21.00
2023-04-08T08:36:05.774Z,19.60
2023-04-08T08:38:33.861Z,17.50
2023-04-08T08:41:04.258Z,19.30
2023-04-08T08:46:01.859Z,18.40
2023-04-08T08:48:31.631Z,18.60
2023-04-08T08:51:00.445Z,19.20
2023-04-08T08:53:33.408Z,17.30
2023-04-08T08:58:35.718Z,19.00
2023-04-08T09:01:37.792Z,16.90
2023-04-08T09:04:18.533Z,18.70
2023-04-08T09:06:50.277Z,16.00
2023-04-08T09:10:04.359Z,18.10
2023-04-08T09:12:32.626Z,14.20
2023-04-08T09:15:20.262Z,14.30
2023-04-08T09:17:48.444Z,14.00
2023-04-08T09:20:16.634Z,15.00
2023-04-08T09:22:53.786Z,18.20
2023-04-08T09:25:33.673Z,16.10
2023-04-08T09:28:03.263Z,15.30
2023-04-08T09:30:32.749Z,15.50
2023-04-08T09:33:01.637Z,16.80
2023-04-08T09:35:29.785Z,14.20
2023-04-08T09:37:57.921Z,15.10
2023-04-08T09:40:28.027Z,12.40
2023-04-08T09:42:57.451Z,11.60
2023-04-08T09:45:26.060Z,10.80
2023-04-08T09:48:19.856Z,15.50
2023-04-08T09:50:50.827Z,14.20
2023-04-08T09:53:30.347Z,13.50
2023-04-08T09:56:00.316Z,12.10
2023-04-08T09:58:29.734Z,11.60
2023-04-08T10:00:58.687Z,10.60
2023-04-08T10:03:34.800Z,12.00
2023-04-08T10:06:03.788Z,12.80
2023-04-08T10:08:33.207Z,12.80
2023-04-08T10:11:01.366Z,11.00
2023-04-08T10:13:29.765Z,11.30
2023-04-08T10:16:27.270Z,8.90
2023-04-08T10:18:56.754Z,9.20
2023-04-08T10:21:50.260Z,10.40
2023-04-08T10:24:24.287Z,10.00
2023-04-08T10:26:52.339Z,10.30
2023-04-08T10:31:58.741Z,10.90
2023-04-08T10:34:29.876Z,9.70
2023-04-08T10:36:59.572Z,18.30
2023-04-08T10:39:27.755Z,8.90
2023-04-08T10:41:56.596Z,10.80
2023-04-08T10:44:26.800Z,9.20
2023-04-08T10:46:55.646Z,10.30
2023-04-08T10:49:40.116Z,10.40
2023-04-08T10:52:13.886Z,12.20
2023-04-08T10:54:48.430Z,14.90
2023-04-08T10:57:23.583Z,12.50
2023-04-08T10:59:51.845Z,8.10
2023-04-08T11:02:22.467Z,7.70
2023-04-08T11:04:54.339Z,8.00
2023-04-08T11:07:25.641Z,7.60
2023-04-08T11:09:56.593Z,8.10
2023-04-08T11:12:25.594Z,7.60
2023-04-08T11:14:55.195Z,10.90
2023-04-08T11:17:24.207Z,8.30
2023-04-08T11:19:52.822Z,9.20
2023-04-08T11:22:21.158Z,9.80
2023-04-08T11:24:49.980Z,8.20
2023-04-08T11:27:18.056Z,8.50
2023-04-08T11:29:46.028Z,8.90
2023-04-08T11:32:14.347Z,9.80
2023-04-08T11:34:42.391Z,9.20
2023-04-08T11:37:10.484Z,9.50
2023-04-08T11:39:46.183Z,11.70
2023-04-08T11:42:33.897Z,9.90
2023-04-08T11:45:02.032Z,10.20
2023-04-08T11:47:34.549Z,12.00
2023-04-08T11:50:02.826Z,10.00
2023-04-08T11:52:48.752Z,10.40
2023-04-08T11:55:48.152Z,8.80
2023-04-08T11:58:19.538Z,8.90
2023-04-08T12:00:50.895Z,9.10
2023-04-08T12:03:19.008Z,8.10
2023-04-08T12:05:46.995Z,9.30
2023-04-08T12:08:14.947Z,9.70
2023-04-08T12:10:43.145Z,11.70
2023-04-08T12:13:11.573Z,10.70
2023-04-08T12:15:39.607Z,8.80
2023-04-08T12:18:07.623Z,10.40
2023-04-08T12:20:35.625Z,9.00
2023-04-08T12:23:03.638Z,9.60
2023-04-08T12:25:31.581Z,9.40
2023-04-08T12:27:59.584Z,8.60
2023-04-08T12:30:27.550Z,8.90
2023-04-08T12:32:55.635Z,9.60
2023-04-08T12:35:23.600Z,11.90
2023-04-08T12:37:51.569Z,9.00
2023-04-08T12:40:19.709Z,8.10
2023-04-08T12:42:48.648Z,8.70
2023-04-08T12:45:16.593Z,8.80
2023-04-08T12:47:44.687Z,9.50
2023-04-08T12:50:12.740Z,7.00
2023-04-08T12:52:40.791Z,8.40
2023-04-08T12:55:14.146Z,8.80
2023-04-08T12:57:42.425Z,8.80
2023-04-08T13:00:13.759Z,10.80
2023-04-08T13:02:42.794Z,10.80
2023-04-08T13:05:11.125Z,10.70
2023-04-08T13:07:39.301Z,7.80
2023-04-08T13:10:08.866Z,7.90
2023-04-08T13:12:40.378Z,8.50
2023-04-08T13:15:09.566Z,8.90
2023-04-08T13:17:40.835Z,8.50
2023-04-08T13:20:10.892Z,8.70
2023-04-08T13:22:40.859Z,10.90
2023-04-08T13:25:09.147Z,9.00
2023-04-08T13:27:37.288Z,9.30
2023-04-08T13:30:08.408Z,10.60
2023-04-08T13:32:36.681Z,9.20
2023-04-08T13:35:06.468Z,9.10
2023-04-08T13:37:37.178Z,8.40
2023-04-08T13:40:06.392Z,8.60
2023-04-08T13:42:34.917Z,13.40
2023-04-08T13:45:03.245Z,9.80
2023-04-08T13:47:31.379Z,11.80
2023-04-08T13:50:00.294Z,10.40
2023-04-08T13:52:28.541Z,13.20
2023-04-08T13:54:56.681Z,12.80
2023-04-08T13:57:24.716Z,9.90
2023-04-08T13:59:52.920Z,11.00
2023-04-08T14:02:22.093Z,10.90
2023-04-08T14:04:50.186Z,11.80
2023-04-08T14:07:19.253Z,10.90
2023-04-08T14:09:47.496Z,13.10
2023-04-08T14:12:15.583Z,10.90
2023-04-08T14:14:43.470Z,13.20
2023-04-08T14:17:11.649Z,12.70
2023-04-08T14:19:42.246Z,17.50
2023-04-08T14:22:10.502Z,11.70
2023-04-08T14:24:38.481Z,11.30
2023-04-08T14:27:09.365Z,13.20
2023-04-08T14:29:37.336Z,16.80
2023-04-08T14:32:05.751Z,20.20
2023-04-08T14:34:33.761Z,15.30
2023-04-08T14:37:03.246Z,16.10
2023-04-08T14:39:36.176Z,12.90
2023-04-08T14:42:04.168Z,14.30
2023-04-08T14:44:32.190Z,12.80
2023-04-08T14:47:00.231Z,17.00
2023-04-08T14:49:28.348Z,14.00
2023-04-08T14:51:56.470Z,20.80
2023-04-08T14:54:24.726Z,15.00
2023-04-08T14:56:54.202Z,15.20
2023-04-08T14:59:22.320Z,13.70
2023-04-08T15:01:50.630Z,12.80
2023-04-08T15:04:18.853Z,13.80
2023-04-08T15:06:47.145Z,12.20
2023-04-08T15:09:15.640Z,11.10
2023-04-08T15:11:43.885Z,13.00
2023-04-08T15:14:12.285Z,13.80
2023-04-08T15:16:40.513Z,11.60
2023-04-08T15:19:08.695Z,13.00
2023-04-08T15:21:36.895Z,14.30
2023-04-08T15:24:05.142Z,12.40
2023-04-08T15:26:33.724Z,11.30
2023-04-08T15:29:04.808Z,11.30
2023-04-08T15:31:35.279Z,11.90
2023-04-08T15:34:04.951Z,11.90
2023-04-08T15:36:35.467Z,14.20
2023-04-08T15:39:03.787Z,14.00
2023-04-08T15:41:32.554Z,12.60
2023-04-08T15:44:00.771Z,11.10
2023-04-08T15:46:29.049Z,12.60
2023-04-08T15:48:58.366Z,13.30
2023-04-08T15:51:27.902Z,14.60
2023-04-08T15:53:56.121Z,13.50
2023-04-08T15:56:29.670Z,13.30
2023-04-08T15:58:57.761Z,11.70
2023-04-08T16:01:25.971Z,13.90
2023-04-08T16:03:54.179Z,13.50
2023-04-08T16:06:24.236Z,12.30
2023-04-08T16:08:52.757Z,14.90
2023-04-08T16:11:22.737Z,17.80
2023-04-08T16:13:51.177Z,13.70
2023-04-08T16:16:19.952Z,16.90
2023-04-08T16:18:48.798Z,23.10
2023-04-08T16:21:17.544Z,19.00
2023-04-08T16:23:46.077Z,17.10
2023-04-08T16:26:14.646Z,19.40
2023-04-08T16:28:42.680Z,21.90
2023-04-08T16:31:10.857Z,20.00
2023-04-08T16:33:39.041Z,16.90
2023-04-08T16:36:07.641Z,21.50
2023-04-08T16:38:35.786Z,22.50
2023-04-08T16:41:06.254Z,21.60
2023-04-08T16:43:34.364Z,18.80
2023-04-08T16:46:13.020Z,21.50
2023-04-08T16:48:42.422Z,29.20
2023-04-08T16:51:11.709Z,32.50
2023-04-08T16:53:40.111Z,27.70
2023-04-08T16:56:16.415Z,26.70
2023-04-08T16:58:44.916Z,30.00
2023-04-08T17:01:16.577Z,32.70
2023-04-08T17:03:46.295Z,47.20
2023-04-08T17:06:15.220Z,34.40
2023-04-08T17:08:43.665Z,27.20
2023-04-08T17:11:14.132Z,28.00
2023-04-08T17:16:16.456Z,24.90
2023-04-08T17:18:45.985Z,26.50
2023-04-08T17:21:14.208Z,27.40
2023-04-08T17:23:42.416Z,25.80
2023-04-08T17:26:10.836Z,36.20
2023-04-08T17:28:39.518Z,27.70
2023-04-08T17:31:07.929Z,23.50
2023-04-08T17:33:36.069Z,25.30
2023-04-08T17:36:04.509Z,21.90
2023-04-08T17:38:33.070Z,25.40
2023-04-08T17:41:01.268Z,25.80
2023-04-08T17:43:29.457Z,25.50
2023-04-08T17:46:01.753Z,25.60
2023-04-08T17:48:30.138Z,28.20
2023-04-08T17:51:02.845Z,25.10
2023-04-08T17:53:32.633Z,35.30
2023-04-08T17:56:01.482Z,34.10
2023-04-08T17:58:29.736Z,32.50
2023-04-08T18:00:57.934Z,50.00
2023-04-08T18:03:27.384Z,49.00
2023-04-08T18:05:55.910Z,56.40
2023-04-08T18:08:24.144Z,57.80
2023-04-08T18:10:54.829Z,62.30
2023-04-08T18:15:55.372Z,65.10
2023-04-08T18:18:27.656Z,57.90
2023-04-08T18:20:55.946Z,59.40
2023-04-08T18:23:24.184Z,62.30
2023-04-08T18:25:52.576Z,64.20
2023-04-08T18:28:22.599Z,61.20
2023-04-08T18:30:53.763Z,64.50
2023-04-08T18:33:21.910Z,69.20
2023-04-08T18:35:57.079Z,81.60
2023-04-08T18:38:27.341Z,80.20
2023-04-08T18:41:01.861Z,77.60
2023-04-08T18:43:35.740Z,83.30
2023-04-08T18:46:04.938Z,89.90
2023-04-08T18:48:35.910Z,77.10
2023-04-08T18:51:04.546Z,79.40
2023-04-08T18:53:32.630Z,79.00
2023-04-08T18:56:00.698Z,84.00
2023-04-08T18:58:28.886Z,79.70
2023-04-08T19:00:57.212Z,80.60
2023-04-08T19:03:32.316Z,80.40
2023-04-08T19:06:10.818Z,76.00
2023-04-08T19:08:40.305Z,83.30
2023-04-08T19:11:08.457Z,82.20
2023-04-08T19:13:36.708Z,91.10
2023-04-08T19:16:06.649Z,84.60
2023-04-08T19:18:34.825Z,75.60
2023-04-08T19:21:03.734Z,81.60
2023-04-08T19:23:32.356Z,65.30
2023-04-08T19:26:05.365Z,55.60
2023-04-08T19:28:34.108Z,60.00
2023-04-08T19:31:02.573Z,58.60
2023-04-08T19:33:30.872Z,63.90
2023-04-08T19:35:58.980Z,68.90
2023-04-08T19:38:27.179Z,63.20
2023-04-08T19:40:55.403Z,59.00
2023-04-08T19:43:23.717Z,63.50
2023-04-08T19:45:55.533Z,60.80
2023-04-08T19:48:24.703Z,55.70
2023-04-08T19:50:52.921Z,54.00
2023-04-08T19:53:21.901Z,48.40
2023-04-08T19:56:00.864Z,51.80
2023-04-08T19:58:31.384Z,50.70
2023-04-08T20:01:02.845Z,59.40
2023-04-08T20:03:34.744Z,60.90
2023-04-08T20:06:05.835Z,71.50
2023-04-08T20:08:34.758Z,67.80
2023-04-08T20:11:04.586Z,71.00
2023-04-08T20:13:34.774Z,80.10
2023-04-08T20:16:06.039Z,87.00
2023-04-08T20:18:34.687Z,92.70
2023-04-08T20:21:05.763Z,97.10
2023-04-08T20:23:34.023Z,110.10
2023-04-08T20:26:02.255Z,104.70
2023-04-08T20:28:32.798Z,127.20
2023-04-08T20:31:02.015Z,184.80
2023-04-08T20:33:30.598Z,190.30
2023-04-08T20:35:58.815Z,131.00
2023-04-08T20:38:28.453Z,134.50
2023-04-08T20:40:56.639Z,134.80
2023-04-08T20:43:29.099Z,123.30
2023-04-08T20:45:58.766Z,135.80
2023-04-08T20:48:27.107Z,121.80
2023-04-08T20:50:55.301Z,120.80
2023-04-08T20:53:26.726Z,118.10
2023-04-08T20:55:55.024Z,98.40
2023-04-08T20:58:23.170Z,101.80
2023-04-08T21:00:51.382Z,104.80
2023-04-08T21:03:19.912Z,112.00
2023-04-08T21:05:49.180Z,96.00
2023-04-08T21:08:17.478Z,93.00
2023-04-08T21:10:45.694Z,89.00
2023-04-08T21:13:16.489Z,87.30
2023-04-08T21:15:48.730Z,78.10
2023-04-08T21:18:16.916Z,89.40
2023-04-08T21:20:45.313Z,83.30
2023-04-08T21:23:13.538Z,77.10
2023-04-08T21:25:41.655Z,80.40
2023-04-08T21:28:09.762Z,70.20
2023-04-08T21:30:37.876Z,75.70
2023-04-08T21:33:06.186Z,65.80
2023-04-08T21:35:36.254Z,75.40
2023-04-08T21:38:04.366Z,65.30
2023-04-08T21:40:32.551Z,63.00
2023-04-08T21:43:00.736Z,60.60
2023-04-08T21:45:29.025Z,58.20
2023-04-08T21:47:57.125Z,54.80
2023-04-08T21:50:25.362Z,50.20
2023-04-08T21:52:53.583Z,43.30
2023-04-08T21:55:21.684Z,44.80
2023-04-08T21:57:49.896Z,47.10
2023-04-08T22:00:18.130Z,44.10
2023-04-08T22:02:46.758Z,45.20
2023-04-08T22:05:15.002Z,41.30
2023-04-08T22:07:43.068Z,40.30
2023-04-08T22:10:11.518Z,35.20
2023-04-08T22:12:39.540Z,38.30
2023-04-08T22:15:08.387Z,38.30
2023-04-08T22:17:36.409Z,40.30
2023-04-08T22:20:04.790Z,37.80
2023-04-08T22:22:32.707Z,36.40
2023-04-08T22:25:00.762Z,37.20
2023-04-08T22:27:29.276Z,38.20
2023-04-08T22:29:57.327Z,36.50
2023-04-08T22:32:25.483Z,34.90
2023-04-08T22:34:53.566Z,36.30
2023-04-08T22:37:21.897Z,41.50
2023-04-08T22:39:49.868Z,35.10
2023-04-08T22:42:17.787Z,36.80
2023-04-08T22:44:46.033Z,37.70
2023-04-08T22:47:14.080Z,44.00
2023-04-08T22:49:42.830Z,41.30
2023-04-08T22:52:10.934Z,61.10
2023-04-08T22:54:38.867Z,64.00
2023-04-08T22:57:07.021Z,55.90
2023-04-08T22:59:34.958Z,56.90
2023-04-08T23:02:03.072Z,58.10
2023-04-08T23:04:31.416Z,65.50
2023-04-08T23:06:59.429Z,56.50
2023-04-08T23:09:28.257Z,62.30
2023-04-08T23:11:56.328Z,56.20
2023-04-08T23:14:24.374Z,54.00
2023-04-08T23:16:52.528Z,54.20
2023-04-08T23:19:20.848Z,50.00
2023-04-08T23:21:48.915Z,56.00
2023-04-08T23:24:16.921Z,47.10
2023-04-08T23:26:45.048Z,50.40
2023-04-08T23:29:12.969Z,43.90
2023-04-08T23:31:41.362Z,44.50
2023-04-08T23:34:09.474Z,45.60
2023-04-08T23:36:37.978Z,42.90
2023-04-08T23:39:05.947Z,42.50
2023-04-08T23:41:34.114Z,41.00
2023-04-08T23:44:02.108Z,43.70
2023-04-08T23:46:30.377Z,41.50
2023-04-08T23:48:58.536Z,43.50
2023-04-08T23:51:27.954Z,41.70
2023-04-08T23:53:56.138Z,44.20
2023-04-08T23:56:24.289Z,44.50
2023-04-08T23:58:52.552Z,42.70
